createdAt,value
2022-07-28T00:01:16.582Z,100.00
2022-07-28T00:03:49.223Z,100.00
2022-07-28T00:06:17.780Z,100.00
2022-07-28T00:08:46.083Z,100.00
2022-07-28T00:11:14.674Z,100.00
2022-07-28T00:13:42.654Z,100.00
2022-07-28T00:16:10.870Z,100.00
2022-07-28T00:18:39.522Z,100.00
2022-07-28T00:21:07.678Z,100.00
2022-07-28T00:23:39.092Z,100.00
2022-07-28T00:26:09.484Z,100.00
2022-07-28T00:28:37.878Z,100.00
2022-07-28T00:31:10.773Z,100.00
2022-07-28T00:33:41.988Z,100.00
2022-07-28T00:36:11.768Z,100.00
2022-07-28T00:38:44.415Z,100.00
2022-07-28T00:41:14.031Z,100.00
2022-07-28T00:43:48.120Z,100.00
2022-07-28T00:46:19.651Z,100.00
2022-07-28T00:48:51.144Z,100.00
2022-07-28T00:51:21.841Z,100.00
2022-07-28T00:53:51.083Z,100.00
2022-07-28T00:56:20.144Z,100.00
2022-07-28T00:58:48.756Z,100.00
2022-07-28T01:01:20.213Z,100.00
2022-07-28T01:03:53.846Z,100.00
2022-07-28T01:06:48.961Z,100.00
2022-07-28T01:09:45.657Z,100.00
2022-07-28T01:12:37.954Z,100.00
2022-07-28T01:15:33.580Z,100.00
2022-07-28T01:18:09.941Z,100.00
2022-07-28T01:21:02.453Z,100.00
2022-07-28T01:23:33.878Z,100.00
2022-07-28T01:26:14.237Z,100.00
2022-07-28T01:28:55.303Z,100.00
2022-07-28T01:31:26.158Z,100.00
2022-07-28T01:34:05.146Z,100.00
2022-07-28T01:36:40.105Z,100.00
2022-07-28T01:39:08.646Z,100.00
2022-07-28T01:41:39.219Z,100.00
2022-07-28T01:44:14.003Z,100.00
2022-07-28T01:46:45.554Z,100.00
2022-07-28T01:49:15.049Z,100.00
2022-07-28T01:51:45.059Z,100.00
2022-07-28T01:54:15.155Z,100.00
2022-07-28T01:56:44.452Z,100.00
2022-07-28T01:59:13.176Z,100.00
2022-07-28T02:01:47.265Z,100.00
2022-07-28T02:04:19.004Z,100.00
2022-07-28T02:06:49.946Z,100.00
2022-07-28T02:09:21.358Z,100.00
2022-07-28T02:11:52.229Z,100.00
2022-07-28T02:14:23.839Z,100.00
2022-07-28T02:16:56.663Z,100.00
2022-07-28T02:19:26.550Z,100.00
2022-07-28T02:21:55.800Z,100.00
2022-07-28T02:24:28.518Z,100.00
2022-07-28T02:27:04.356Z,100.00
2022-07-28T02:29:50.846Z,100.00
2022-07-28T02:32:35.834Z,100.00
2022-07-28T02:35:48.879Z,100.00
2022-07-28T02:38:30.538Z,100.00
2022-07-28T02:41:08.760Z,100.00
2022-07-28T02:43:49.530Z,100.00
2022-07-28T02:46:26.217Z,100.00
2022-07-28T02:49:03.255Z,100.00
2022-07-28T02:51:34.799Z,100.00
2022-07-28T02:54:03.682Z,100.00
2022-07-28T02:56:33.291Z,100.00
2022-07-28T02:59:02.851Z,100.00
2022-07-28T03:01:31.908Z,100.00
2022-07-28T03:04:00.873Z,100.00
2022-07-28T03:06:29.169Z,100.00
2022-07-28T03:08:57.925Z,100.00
2022-07-28T03:11:27.809Z,100.00
2022-07-28T03:13:55.803Z,100.00
2022-07-28T03:16:23.745Z,100.00
2022-07-28T03:18:52.038Z,100.00
2022-07-28T03:21:19.906Z,100.00
2022-07-28T03:23:50.522Z,100.00
2022-07-28T03:26:30.876Z,100.00
2022-07-28T03:29:00.656Z,100.00
2022-07-28T03:31:32.079Z,100.00
2022-07-28T03:34:00.942Z,100.00
2022-07-28T03:36:40.164Z,100.00
2022-07-28T03:39:12.158Z,100.00
2022-07-28T03:41:44.012Z,100.00
2022-07-28T03:44:15.170Z,100.00
2022-07-28T03:46:56.527Z,100.00
2022-07-28T03:49:25.062Z,100.00
2022-07-28T03:51:53.184Z,100.00
2022-07-28T03:54:21.307Z,100.00
2022-07-28T03:56:49.267Z,100.00
2022-07-28T03:59:18.060Z,100.00
2022-07-28T04:01:46.356Z,100.00
2022-07-28T04:04:15.039Z,100.00
2022-07-28T04:06:43.633Z,100.00
2022-07-28T04:09:11.645Z,100.00
2022-07-28T04:11:39.615Z,100.00
2022-07-28T04:14:11.039Z,100.00
2022-07-28T04:16:42.798Z,100.00
2022-07-28T04:19:10.801Z,100.00
2022-07-28T04:21:38.968Z,100.00
2022-07-28T04:24:10.034Z,100.00
2022-07-28T04:26:38.992Z,100.00
2022-07-28T04:29:07.329Z,100.00
2022-07-28T04:31:35.212Z,100.00
2022-07-28T04:34:03.213Z,100.00
2022-07-28T04:36:31.365Z,100.00
2022-07-28T04:38:59.608Z,100.00
2022-07-28T04:41:27.806Z,100.00
2022-07-28T04:43:55.983Z,100.00
2022-07-28T04:46:23.980Z,100.00
2022-07-28T04:48:52.286Z,100.00
2022-07-28T04:51:20.384Z,100.00
2022-07-28T04:53:48.714Z,100.00
2022-07-28T04:56:16.692Z,100.00
2022-07-28T04:58:44.723Z,100.00
2022-07-28T05:01:13.703Z,100.00
2022-07-28T05:03:41.626Z,100.00
2022-07-28T05:06:09.526Z,100.00
2022-07-28T05:08:37.499Z,100.00
2022-07-28T05:11:05.383Z,100.00
2022-07-28T05:13:34.501Z,100.00
2022-07-28T05:16:03.587Z,100.00
2022-07-28T05:18:31.684Z,100.00
2022-07-28T05:20:59.832Z,100.00
2022-07-28T05:23:27.992Z,100.00
2022-07-28T05:25:56.780Z,100.00
2022-07-28T05:28:24.929Z,100.00
2022-07-28T05:30:52.863Z,100.00
2022-07-28T05:33:20.899Z,100.00
2022-07-28T05:35:59.714Z,100.00
2022-07-28T05:38:29.017Z,100.00
2022-07-28T05:40:57.158Z,100.00
2022-07-28T05:43:25.820Z,100.00
2022-07-28T05:45:53.779Z,100.00
2022-07-28T05:48:22.435Z,100.00
2022-07-28T05:50:51.336Z,100.00
2022-07-28T05:53:19.672Z,100.00
2022-07-28T05:55:57.789Z,100.00
2022-07-28T05:58:30.915Z,100.00
2022-07-28T06:01:01.352Z,100.00
2022-07-28T06:03:39.814Z,100.00
2022-07-28T06:06:14.559Z,100.00
2022-07-28T06:08:44.280Z,100.00
2022-07-28T06:11:22.227Z,100.00
2022-07-28T06:13:52.371Z,100.00
2022-07-28T06:16:21.390Z,100.00
2022-07-28T06:18:50.326Z,100.00
2022-07-28T06:21:18.894Z,100.00
2022-07-28T06:23:46.886Z,100.00
2022-07-28T06:26:14.918Z,100.00
2022-07-28T06:28:42.958Z,100.00
2022-07-28T06:31:10.937Z,100.00
2022-07-28T06:33:39.134Z,100.00
2022-07-28T06:36:07.222Z,100.00
2022-07-28T06:38:35.489Z,100.00
2022-07-28T06:41:03.906Z,100.00
2022-07-28T06:43:38.302Z,100.00
2022-07-28T06:46:07.767Z,100.00
2022-07-28T06:48:39.726Z,100.00
2022-07-28T06:51:07.858Z,100.00
2022-07-28T06:53:36.236Z,100.00
2022-07-28T06:56:05.352Z,100.00
2022-07-28T06:58:34.448Z,100.00
2022-07-28T07:01:08.103Z,100.00
2022-07-28T07:03:37.433Z,100.00
2022-07-28T07:06:05.599Z,100.00
2022-07-28T07:08:34.038Z,100.00
2022-07-28T07:11:02.442Z,100.00
2022-07-28T07:13:30.747Z,100.00
2022-07-28T07:15:59.029Z,100.00
2022-07-28T07:18:27.534Z,100.00
2022-07-28T07:20:57.816Z,100.00
2022-07-28T07:23:25.942Z,100.00
2022-07-28T07:25:54.235Z,100.00
2022-07-28T07:28:22.318Z,100.00
2022-07-28T07:30:50.557Z,100.00
2022-07-28T07:33:18.748Z,100.00
2022-07-28T07:35:47.168Z,100.00
2022-07-28T07:38:15.556Z,100.00
2022-07-28T07:40:52.347Z,100.00
2022-07-28T07:43:20.867Z,100.00
2022-07-28T07:45:49.076Z,100.00
2022-07-28T07:48:17.401Z,100.00
2022-07-28T07:50:48.376Z,100.00
2022-07-28T07:53:18.661Z,100.00
2022-07-28T07:55:46.675Z,100.00
2022-07-28T07:58:14.817Z,100.00
2022-07-28T08:00:42.999Z,100.00
2022-07-28T08:03:11.524Z,100.00
2022-07-28T08:05:42.613Z,100.00
2022-07-28T08:08:11.043Z,100.00
2022-07-28T08:10:39.748Z,100.00
2022-07-28T08:13:08.657Z,100.00
2022-07-28T08:15:36.730Z,100.00
2022-07-28T08:18:05.658Z,100.00
2022-07-28T08:20:33.944Z,100.00
2022-07-28T08:23:02.478Z,100.00
2022-07-28T08:25:30.469Z,100.00
2022-07-28T08:27:58.552Z,100.00
2022-07-28T08:30:31.976Z,100.00
2022-07-28T08:33:03.091Z,100.00
2022-07-28T08:35:33.991Z,100.00
2022-07-28T08:38:06.528Z,100.00
2022-07-28T08:40:38.908Z,100.00
2022-07-28T08:43:22.970Z,100.00
2022-07-28T08:45:58.171Z,100.00
2022-07-28T08:48:38.205Z,100.00
2022-07-28T08:51:11.529Z,100.00
2022-07-28T08:53:40.831Z,100.00
2022-07-28T08:56:14.353Z,100.00
2022-07-28T08:58:43.470Z,100.00
2022-07-28T09:01:11.791Z,100.00
2022-07-28T09:03:40.301Z,100.00
2022-07-28T09:06:08.946Z,100.00
2022-07-28T09:08:37.371Z,100.00
2022-07-28T09:11:08.233Z,100.00
2022-07-28T09:13:36.524Z,100.00
2022-07-28T09:16:06.894Z,100.00
2022-07-28T09:18:35.162Z,100.00
2022-07-28T09:21:03.266Z,100.00
2022-07-28T09:23:48.885Z,100.00
2022-07-28T09:26:18.454Z,100.00
2022-07-28T09:28:56.108Z,100.00
2022-07-28T09:31:29.203Z,100.00
2022-07-28T09:34:06.809Z,100.00
2022-07-28T09:36:40.666Z,100.00
2022-07-28T09:39:09.399Z,100.00
2022-07-28T09:41:49.515Z,100.00
2022-07-28T09:44:19.865Z,100.00
2022-07-28T09:46:48.166Z,100.00
2022-07-28T09:49:16.877Z,100.00
2022-07-28T09:52:02.774Z,100.00
2022-07-28T09:54:31.023Z,100.00
2022-07-28T09:56:59.281Z,100.00
2022-07-28T09:59:41.054Z,100.00
2022-07-28T10:02:12.994Z,100.00
2022-07-28T10:04:42.139Z,100.00
2022-07-28T10:07:17.413Z,100.00
2022-07-28T10:10:04.424Z,100.00
2022-07-28T10:12:36.808Z,100.00
2022-07-28T10:15:36.574Z,100.00
2022-07-28T10:18:05.948Z,100.00
2022-07-28T10:20:35.420Z,100.00
2022-07-28T10:23:06.120Z,100.00
2022-07-28T10:25:35.727Z,100.00
2022-07-28T10:28:04.453Z,99.77
2022-07-28T10:30:40.345Z,99.96
2022-07-28T10:33:15.947Z,100.00
2022-07-28T10:35:55.476Z,100.00
2022-07-28T10:38:30.442Z,100.00
2022-07-28T10:41:01.875Z,100.00
2022-07-28T10:43:32.136Z,100.00
2022-07-28T10:46:06.067Z,100.00
2022-07-28T10:48:38.647Z,99.99
2022-07-28T10:51:07.635Z,99.99
2022-07-28T10:53:43.643Z,98.84
2022-07-28T10:56:38.979Z,98.76
2022-07-28T10:59:44.789Z,98.53
2022-07-28T11:02:32.785Z,93.69
2022-07-28T11:05:03.764Z,93.69
2022-07-28T11:07:39.940Z,92.04
2022-07-28T11:10:18.680Z,95.16
2022-07-28T11:12:55.077Z,94.45
2022-07-28T11:15:32.594Z,91.46
2022-07-28T11:18:04.362Z,91.35
2022-07-28T11:20:51.429Z,90.43
2022-07-28T11:23:39.797Z,91.45
2022-07-28T11:26:21.028Z,91.72
2022-07-28T11:28:59.145Z,88.64
2022-07-28T11:31:45.993Z,88.49
2022-07-28T11:34:19.518Z,91.59
2022-07-28T11:37:05.762Z,88.89
2022-07-28T11:39:43.260Z,86.08
2022-07-28T11:42:31.195Z,83.45
2022-07-28T11:45:23.388Z,81.87
2022-07-28T11:48:17.518Z,82.82
2022-07-28T11:51:04.119Z,83.05
2022-07-28T11:53:53.175Z,83.22
2022-07-28T11:56:29.421Z,82.84
2022-07-28T11:59:00.480Z,82.82
2022-07-28T12:01:31.737Z,82.61
2022-07-28T12:04:01.414Z,82.79
2022-07-28T12:06:37.659Z,83.00
2022-07-28T12:09:08.510Z,81.16
2022-07-28T12:11:41.322Z,81.68
2022-07-28T12:14:15.401Z,82.28
2022-07-28T12:16:45.992Z,80.65
2022-07-28T12:19:19.270Z,81.95
2022-07-28T12:21:52.841Z,82.13
2022-07-28T12:24:45.125Z,83.84
2022-07-28T12:27:16.615Z,79.80
2022-07-28T12:29:59.918Z,76.68
2022-07-28T12:32:35.574Z,74.31
2022-07-28T12:35:05.563Z,74.73
2022-07-28T12:37:33.653Z,74.23
2022-07-28T12:40:02.765Z,76.08
2022-07-28T12:42:32.345Z,74.69
2022-07-28T12:45:04.825Z,76.06
2022-07-28T12:47:33.539Z,76.53
2022-07-28T12:50:14.084Z,74.29
2022-07-28T12:52:44.257Z,74.23
2022-07-28T12:55:24.955Z,69.98
2022-07-28T12:57:53.795Z,71.73
2022-07-28T13:00:27.265Z,72.96
2022-07-28T13:02:58.862Z,74.09
2022-07-28T13:05:57.290Z,75.23
2022-07-28T13:08:27.406Z,69.17
2022-07-28T13:10:58.995Z,68.72
2022-07-28T13:13:27.888Z,71.53
2022-07-28T13:16:16.634Z,70.33
2022-07-28T13:18:48.015Z,69.81
2022-07-28T13:21:16.848Z,68.31
2022-07-28T13:23:45.093Z,68.85
2022-07-28T13:26:13.335Z,69.18
2022-07-28T13:28:41.590Z,69.40
2022-07-28T13:31:09.697Z,70.51
2022-07-28T13:33:38.115Z,72.11
2022-07-28T13:36:06.591Z,73.66
2022-07-28T13:38:34.728Z,76.21
2022-07-28T13:41:03.204Z,76.67
2022-07-28T13:43:36.348Z,77.08
2022-07-28T13:46:05.514Z,77.64
2022-07-28T13:48:36.189Z,78.83
2022-07-28T13:51:04.337Z,80.18
2022-07-28T13:53:33.846Z,79.51
2022-07-28T13:56:02.005Z,79.57
2022-07-28T13:58:30.188Z,80.52
2022-07-28T14:00:59.599Z,81.33
2022-07-28T14:03:29.008Z,82.36
2022-07-28T14:06:17.053Z,82.25
2022-07-28T14:08:45.261Z,83.79
2022-07-28T14:11:16.289Z,84.55
2022-07-28T14:13:44.485Z,84.84
2022-07-28T14:16:14.483Z,85.86
2022-07-28T14:18:42.866Z,87.95
2022-07-28T14:21:10.894Z,88.97
2022-07-28T14:23:39.005Z,90.50
2022-07-28T14:26:34.562Z,91.31
2022-07-28T14:28:56.016Z,92.07
2022-07-28T14:31:24.292Z,92.93
2022-07-28T14:33:54.915Z,94.87
2022-07-28T14:36:23.225Z,99.16
2022-07-28T14:38:54.153Z,100.00
2022-07-28T14:41:23.703Z,100.00
2022-07-28T14:43:52.875Z,100.00
2022-07-28T14:46:22.099Z,100.00
2022-07-28T14:48:58.216Z,100.00
2022-07-28T14:51:26.403Z,100.00
2022-07-28T14:53:57.199Z,100.00
2022-07-28T14:56:25.234Z,100.00
2022-07-28T14:58:53.390Z,100.00
2022-07-28T15:01:21.709Z,100.00
2022-07-28T15:03:49.686Z,100.00
2022-07-28T15:06:17.817Z,100.00
2022-07-28T15:08:46.140Z,100.00
2022-07-28T15:11:14.427Z,100.00
2022-07-28T15:13:42.507Z,100.00
2022-07-28T15:16:10.531Z,100.00
2022-07-28T15:18:38.795Z,100.00
2022-07-28T15:21:08.762Z,100.00
2022-07-28T15:23:36.844Z,100.00
2022-07-28T15:26:04.957Z,100.00
2022-07-28T15:28:33.603Z,100.00
2022-07-28T15:31:01.831Z,100.00
2022-07-28T15:33:30.443Z,100.00
2022-07-28T15:36:00.622Z,100.00
2022-07-28T15:38:29.592Z,100.00
2022-07-28T15:41:00.448Z,100.00
2022-07-28T15:43:29.755Z,100.00
2022-07-28T15:45:57.816Z,100.00
2022-07-28T15:48:25.976Z,100.00
2022-07-28T15:50:53.998Z,100.00
2022-07-28T15:53:22.740Z,100.00
2022-07-28T15:55:51.868Z,100.00
2022-07-28T15:58:22.013Z,100.00
2022-07-28T16:00:50.629Z,100.00
2022-07-28T16:03:19.344Z,100.00
2022-07-28T16:05:49.797Z,100.00
2022-07-28T16:08:22.728Z,100.00
2022-07-28T16:10:54.163Z,100.00
2022-07-28T16:13:35.725Z,100.00
2022-07-28T16:16:11.116Z,100.00
2022-07-28T16:18:42.628Z,100.00
2022-07-28T16:21:11.247Z,100.00
2022-07-28T16:23:39.341Z,100.00
2022-07-28T16:26:09.474Z,100.00
2022-07-28T16:28:37.906Z,100.00
2022-07-28T16:31:06.454Z,100.00
2022-07-28T16:33:34.616Z,100.00
2022-07-28T16:36:02.828Z,100.00
2022-07-28T16:38:30.961Z,100.00
2022-07-28T16:40:59.418Z,100.00
2022-07-28T16:43:27.531Z,100.00
2022-07-28T16:45:57.571Z,100.00
2022-07-28T16:48:25.907Z,100.00
2022-07-28T16:50:56.988Z,100.00
2022-07-28T16:53:24.947Z,100.00
2022-07-28T16:55:52.924Z,100.00
2022-07-28T16:58:22.505Z,100.00
2022-07-28T17:00:50.912Z,100.00
2022-07-28T17:03:18.924Z,100.00
2022-07-28T17:05:48.187Z,100.00
2022-07-28T17:08:16.208Z,100.00
2022-07-28T17:10:45.723Z,100.00
2022-07-28T17:13:15.592Z,100.00
2022-07-28T17:15:43.713Z,100.00
2022-07-28T17:18:12.336Z,100.00
2022-07-28T17:20:41.495Z,100.00
2022-07-28T17:23:10.101Z,100.00
2022-07-28T17:26:20.854Z,100.00
2022-07-28T17:28:27.334Z,100.00
2022-07-28T17:30:55.464Z,100.00
2022-07-28T17:33:24.994Z,100.00
2022-07-28T17:35:57.896Z,100.00
2022-07-28T17:38:32.508Z,100.00
2022-07-28T17:41:04.271Z,100.00
2022-07-28T17:43:33.020Z,100.00
2022-07-28T17:46:01.324Z,100.00
2022-07-28T17:48:31.239Z,100.00
2022-07-28T17:50:59.685Z,100.00
2022-07-28T17:53:27.831Z,100.00
2022-07-28T17:56:01.134Z,100.00
2022-07-28T17:58:32.108Z,100.00
2022-07-28T18:01:09.804Z,100.00
2022-07-28T18:03:57.744Z,100.00
2022-07-28T18:06:30.781Z,100.00
2022-07-28T18:09:05.484Z,100.00
2022-07-28T18:11:56.039Z,100.00
2022-07-28T18:14:30.482Z,100.00
2022-07-28T18:17:01.336Z,100.00
2022-07-28T18:19:29.970Z,100.00
2022-07-28T18:21:58.568Z,100.00
2022-07-28T18:24:27.477Z,100.00
2022-07-28T18:26:57.550Z,100.00
2022-07-28T18:29:26.227Z,100.00
2022-07-28T18:32:09.596Z,100.00
2022-07-28T18:34:40.479Z,100.00
2022-07-28T18:37:08.510Z,100.00
2022-07-28T18:39:36.428Z,100.00
2022-07-28T18:42:04.759Z,100.00
2022-07-28T18:44:32.816Z,100.00
2022-07-28T18:47:01.956Z,100.00
2022-07-28T18:49:37.211Z,100.00
2022-07-28T18:52:07.068Z,100.00
2022-07-28T18:54:35.134Z,100.00
2022-07-28T18:57:03.176Z,100.00
2022-07-28T18:59:31.099Z,100.00
2022-07-28T19:01:59.188Z,100.00
2022-07-28T19:04:27.353Z,100.00
2022-07-28T19:06:56.101Z,100.00
2022-07-28T19:09:24.294Z,100.00
2022-07-28T19:11:52.419Z,100.00
2022-07-28T19:14:20.824Z,100.00
2022-07-28T19:16:49.516Z,100.00
2022-07-28T19:19:17.454Z,100.00
2022-07-28T19:21:45.544Z,100.00
2022-07-28T19:24:15.244Z,100.00
2022-07-28T19:26:46.348Z,100.00
2022-07-28T19:29:14.375Z,100.00
2022-07-28T19:31:42.983Z,100.00
2022-07-28T19:34:10.955Z,100.00
2022-07-28T19:36:41.739Z,100.00
2022-07-28T19:39:09.886Z,100.00
2022-07-28T19:41:38.481Z,100.00
2022-07-28T19:44:06.672Z,100.00
2022-07-28T19:46:34.757Z,100.00
2022-07-28T19:49:03.185Z,100.00
2022-07-28T19:51:31.278Z,100.00
2022-07-28T19:53:59.706Z,100.00
2022-07-28T19:56:31.167Z,100.00
2022-07-28T19:58:59.902Z,100.00
2022-07-28T20:01:28.239Z,100.00
2022-07-28T20:04:03.994Z,100.00
2022-07-28T20:06:33.425Z,100.00
2022-07-28T20:09:02.525Z,100.00
2022-07-28T20:11:33.234Z,100.00
2022-07-28T20:14:01.482Z,100.00
2022-07-28T20:16:29.958Z,100.00
2022-07-28T20:18:58.024Z,100.00
2022-07-28T20:21:26.645Z,100.00
2022-07-28T20:23:57.199Z,100.00
2022-07-28T20:26:26.846Z,100.00
2022-07-28T20:28:58.434Z,100.00
2022-07-28T20:31:26.771Z,100.00
2022-07-28T20:33:56.638Z,100.00
2022-07-28T20:36:29.443Z,100.00
2022-07-28T20:38:57.697Z,100.00
2022-07-28T20:41:25.837Z,100.00
2022-07-28T20:44:18.548Z,100.00
2022-07-28T20:46:42.214Z,100.00
2022-07-28T20:49:10.229Z,100.00
2022-07-28T20:51:38.192Z,100.00
2022-07-28T20:54:06.123Z,100.00
2022-07-28T20:56:34.277Z,100.00
2022-07-28T20:59:06.734Z,100.00
2022-07-28T21:01:35.219Z,100.00
2022-07-28T21:04:03.433Z,100.00
2022-07-28T21:06:31.993Z,100.00
2022-07-28T21:09:02.103Z,100.00
2022-07-28T21:11:35.162Z,100.00
2022-07-28T21:14:05.038Z,100.00
2022-07-28T21:16:32.945Z,100.00
2022-07-28T21:19:02.197Z,100.00
2022-07-28T21:21:30.726Z,100.00
2022-07-28T21:23:58.679Z,100.00
2022-07-28T21:26:26.576Z,100.00
2022-07-28T21:29:12.925Z,100.00
2022-07-28T21:32:03.628Z,100.00
2022-07-28T21:34:31.141Z,100.00
2022-07-28T21:36:59.601Z,100.00
2022-07-28T21:39:27.704Z,100.00
2022-07-28T21:41:55.666Z,100.00
2022-07-28T21:44:23.660Z,100.00
2022-07-28T21:46:52.174Z,100.00
2022-07-28T21:49:20.199Z,100.00
2022-07-28T21:51:48.152Z,100.00
2022-07-28T21:54:16.562Z,100.00
2022-07-28T21:56:47.305Z,100.00
2022-07-28T21:59:15.231Z,100.00
2022-07-28T22:01:43.336Z,100.00
2022-07-28T22:04:11.484Z,100.00
2022-07-28T22:06:39.412Z,100.00
2022-07-28T22:09:07.367Z,100.00
2022-07-28T22:11:35.360Z,100.00
2022-07-28T22:14:03.383Z,100.00
2022-07-28T22:16:31.373Z,100.00
2022-07-28T22:18:59.343Z,100.00
2022-07-28T22:21:27.349Z,100.00
2022-07-28T22:23:55.366Z,100.00
2022-07-28T22:26:23.483Z,100.00
2022-07-28T22:28:51.459Z,100.00
2022-07-28T22:31:19.549Z,100.00
2022-07-28T22:33:47.674Z,100.00
2022-07-28T22:36:15.682Z,100.00
2022-07-28T22:38:43.653Z,100.00
2022-07-28T22:41:11.580Z,100.00
2022-07-28T22:43:39.525Z,100.00
2022-07-28T22:46:10.264Z,100.00
2022-07-28T22:48:38.464Z,100.00
2022-07-28T22:51:11.260Z,100.00
2022-07-28T22:53:39.736Z,100.00
2022-07-28T22:58:56.521Z,100.00
2022-07-28T23:01:24.700Z,100.00
2022-07-28T23:03:53.592Z,100.00
2022-07-28T23:06:22.364Z,100.00
2022-07-28T23:08:50.424Z,100.00
2022-07-28T23:11:18.556Z,100.00
2022-07-28T23:13:46.662Z,100.00
2022-07-28T23:16:17.165Z,100.00
2022-07-28T23:18:45.194Z,100.00
2022-07-28T23:21:13.274Z,100.00
2022-07-28T23:23:41.285Z,100.00
2022-07-28T23:26:09.494Z,100.00
2022-07-28T23:28:37.537Z,100.00
2022-07-28T23:31:05.723Z,100.00
2022-07-28T23:33:56.275Z,100.00
2022-07-28T23:36:26.433Z,100.00
2022-07-28T23:38:57.265Z,100.00
2022-07-28T23:41:26.930Z,100.00
2022-07-28T23:43:55.048Z,100.00
2022-07-28T23:46:23.696Z,100.00
2022-07-28T23:48:52.009Z,100.00
2022-07-28T23:51:21.407Z,100.00
2022-07-28T23:53:55.924Z,100.00
2022-07-28T23:56:24.383Z,100.00
2022-07-28T23:58:52.481Z,100.00
